createdAt,value
2022-12-11T00:01:19.610Z,21.50
2022-12-11T00:03:48.105Z,21.40
2022-12-11T00:06:17.738Z,20.50
2022-12-11T00:08:45.353Z,20.90
2022-12-11T00:11:19.693Z,19.70
2022-12-11T00:13:59.957Z,18.90
2022-12-11T00:16:45.021Z,19.40
2022-12-11T00:19:22.545Z,19.80
2022-12-11T00:31:31.323Z,21.00
2022-12-11T00:33:58.670Z,20.70
2022-12-11T00:36:27.101Z,20.00
2022-12-11T00:38:57.188Z,20.20
2022-12-11T00:41:24.543Z,18.70
2022-12-11T00:43:51.632Z,19.20
2022-12-11T00:46:19.673Z,17.90
2022-12-11T00:48:49.448Z,19.00
2022-12-11T00:51:17.732Z,19.30
2022-12-11T00:53:44.931Z,17.40
2022-12-11T01:00:08.533Z,18.10
2022-12-11T01:06:47.342Z,18.50
2022-12-11T01:19:26.638Z,19.90
2022-12-11T01:30:52.827Z,19.10
2022-12-11T01:33:21.576Z,19.90
2022-12-11T01:35:56.766Z,17.50
2022-12-11T01:38:26.587Z,18.90
2022-12-11T01:40:59.870Z,18.30
2022-12-11T01:43:34.634Z,17.90
2022-12-11T01:49:48.614Z,18.30
2022-12-11T01:52:38.406Z,18.10
2022-12-11T01:59:25.644Z,18.90
2022-12-11T02:03:25.295Z,17.50
2022-12-11T02:07:47.013Z,17.20
2022-12-11T02:12:05.820Z,19.90
2022-12-11T02:19:23.618Z,18.40
2022-12-11T02:22:06.555Z,17.50
2022-12-11T02:25:11.800Z,17.90
2022-12-11T02:28:14.841Z,17.20
2022-12-11T02:30:49.651Z,17.30
2022-12-11T02:33:28.585Z,16.60
2022-12-11T02:35:59.643Z,16.00
2022-12-11T02:38:35.485Z,17.40
2022-12-11T02:41:42.179Z,17.90
2022-12-11T02:44:56.914Z,16.40
2022-12-11T03:01:10.495Z,18.00
2022-12-11T03:01:28.251Z,16.80
2022-12-11T03:04:18.662Z,16.10
2022-12-11T03:06:54.713Z,16.20
2022-12-11T03:09:33.632Z,18.60
2022-12-11T03:12:05.822Z,17.60
2022-12-11T03:33:05.261Z,17.60
2022-12-11T03:35:39.201Z,15.20
2022-12-11T03:38:14.433Z,17.30
2022-12-11T03:40:46.547Z,17.70
2022-12-11T03:43:16.841Z,16.60
2022-12-11T03:45:49.159Z,15.60
2022-12-11T03:48:19.198Z,15.80
2022-12-11T03:50:52.198Z,15.30
2022-12-11T03:53:23.688Z,17.50
2022-12-11T03:56:04.653Z,15.50
2022-12-11T03:58:48.241Z,14.60
2022-12-11T04:01:17.354Z,14.80
2022-12-11T04:07:15.237Z,14.60
2022-12-11T04:09:43.725Z,13.40
2022-12-11T04:12:12.136Z,14.50
2022-12-11T04:14:59.340Z,14.80
2022-12-11T04:17:48.500Z,13.00
2022-12-11T04:20:35.863Z,13.40
2022-12-11T04:23:32.524Z,14.20
2022-12-11T04:26:06.862Z,14.10
2022-12-11T04:28:36.592Z,15.20
2022-12-11T04:31:06.794Z,14.00
2022-12-11T04:33:40.035Z,13.50
2022-12-11T04:36:37.039Z,14.50
2022-12-11T04:39:24.647Z,14.20
2022-12-11T04:41:58.450Z,14.10
2022-12-11T04:45:06.721Z,14.50
2022-12-11T04:48:05.128Z,15.90
2022-12-11T04:50:41.359Z,13.80
2022-12-11T04:53:23.132Z,13.10
2022-12-11T04:56:19.373Z,13.30
2022-12-11T05:07:55.514Z,13.80
2022-12-11T05:10:32.849Z,14.80
2022-12-11T05:13:25.661Z,14.60
2022-12-11T05:52:28.347Z,12.60
2022-12-11T05:55:29.446Z,12.50
2022-12-11T05:58:21.843Z,12.10
2022-12-11T06:00:57.149Z,11.90
2022-12-11T06:03:39.989Z,11.80
2022-12-11T06:06:12.136Z,12.00
2022-12-11T06:08:41.035Z,11.20
2022-12-11T06:11:10.011Z,11.90
2022-12-11T06:18:14.521Z,10.90
2022-12-11T06:25:22.631Z,8.80
2022-12-11T06:27:54.103Z,10.60
2022-12-11T06:30:37.334Z,10.10
2022-12-11T06:33:16.928Z,11.20
2022-12-11T06:36:14.334Z,10.30
2022-12-11T06:38:49.155Z,10.10
2022-12-11T06:46:47.083Z,10.20
2022-12-11T06:48:06.353Z,11.20
2022-12-11T08:15:57.487Z,10.80
2022-12-11T08:18:54.783Z,10.90
2022-12-11T08:21:43.692Z,11.30
2022-12-11T08:24:38.992Z,11.80
2022-12-11T08:27:45.970Z,12.30
2022-12-11T08:30:28.934Z,10.20
2022-12-11T08:33:04.108Z,11.40
2022-12-11T08:35:44.825Z,11.10
2022-12-11T08:38:29.540Z,11.20
2022-12-11T08:41:17.383Z,11.80
2022-12-11T08:43:58.780Z,11.60
2022-12-11T08:47:24.645Z,12.10
2022-12-11T08:51:30.111Z,10.80
2022-12-11T08:53:55.994Z,9.60
2022-12-11T09:00:44.130Z,11.00
2022-12-11T09:07:56.467Z,10.30
2022-12-11T09:10:49.490Z,10.90
2022-12-11T09:13:48.959Z,10.00
2022-12-11T09:16:37.353Z,9.50
2022-12-11T09:19:19.074Z,10.20
2022-12-11T09:21:58.548Z,10.50
2022-12-11T09:24:43.637Z,9.30
2022-12-11T09:27:25.140Z,9.60
2022-12-11T09:30:20.516Z,10.30
2022-12-11T09:36:39.189Z,9.70
2022-12-11T09:39:40.961Z,9.50
2022-12-11T09:43:13.882Z,9.80
2022-12-11T09:46:14.690Z,9.90
2022-12-11T09:48:54.623Z,10.00
2022-12-11T09:51:40.006Z,10.50
2022-12-11T09:54:35.834Z,8.80
2022-12-11T09:57:27.715Z,10.60
2022-12-11T10:00:21.373Z,10.20
2022-12-11T10:03:17.128Z,10.20
2022-12-11T10:06:16.126Z,9.20
2022-12-11T10:09:11.081Z,10.80
2022-12-11T10:12:13.414Z,9.90
2022-12-11T10:15:14.256Z,9.60
2022-12-11T10:17:59.892Z,9.50
2022-12-11T10:20:42.383Z,10.00
2022-12-11T10:23:29.587Z,10.30
2022-12-11T10:26:34.878Z,9.80
2022-12-11T10:29:18.071Z,9.40
2022-12-11T10:32:01.122Z,9.20
2022-12-11T10:34:46.360Z,10.80
2022-12-11T10:37:30.994Z,11.20
2022-12-11T10:40:17.366Z,9.10
2022-12-11T10:43:30.318Z,9.90
2022-12-11T10:46:01.177Z,10.40
2022-12-11T10:48:32.934Z,10.60
2022-12-11T10:51:08.120Z,9.80
2022-12-11T10:53:46.677Z,9.70
2022-12-11T10:56:29.194Z,9.80
2022-12-11T10:59:10.687Z,9.70
2022-12-11T11:06:13.605Z,8.80
2022-12-11T11:09:07.585Z,9.60
2022-12-11T11:12:00.823Z,10.80
2022-12-11T11:14:39.301Z,9.10
2022-12-11T11:17:32.002Z,10.40
2022-12-11T11:20:27.148Z,10.00
2022-12-11T11:23:17.933Z,10.20
2022-12-11T11:26:04.194Z,8.60
2022-12-11T11:28:56.363Z,9.50
2022-12-11T11:41:14.773Z,7.30
2022-12-11T11:43:54.178Z,7.80
2022-12-11T11:54:45.140Z,9.90
2022-12-11T12:12:41.169Z,8.30
2022-12-11T12:24:32.309Z,9.60
2022-12-11T12:30:59.789Z,9.60
2022-12-11T12:42:05.614Z,8.00
2022-12-11T12:45:04.311Z,8.80
2022-12-11T12:47:53.398Z,9.10
2022-12-11T12:56:17.603Z,10.20
2022-12-11T12:59:00.146Z,10.00
2022-12-11T13:04:58.468Z,9.60
2022-12-11T13:07:37.363Z,9.60
2022-12-11T13:13:58.285Z,9.70
2022-12-11T13:20:27.550Z,10.00
2022-12-11T13:24:45.489Z,11.60
2022-12-11T13:26:57.396Z,9.50
2022-12-11T13:29:39.678Z,9.90
2022-12-11T13:32:14.172Z,10.90
2022-12-11T13:35:30.797Z,10.90
2022-12-11T13:38:40.464Z,10.70
2022-12-11T13:41:17.224Z,10.00
2022-12-11T13:43:56.017Z,10.40
2022-12-11T13:46:39.873Z,11.30
2022-12-11T13:52:43.254Z,10.00
2022-12-11T13:55:39.224Z,11.10
2022-12-11T13:58:41.859Z,11.10
2022-12-11T14:01:45.731Z,9.40
2022-12-11T14:04:58.321Z,10.70
2022-12-11T14:14:51.866Z,11.20
2022-12-11T14:17:26.563Z,10.20
2022-12-11T14:19:58.858Z,9.60
2022-12-11T14:22:35.162Z,10.40
2022-12-11T14:25:27.687Z,9.60
2022-12-11T14:28:06.736Z,10.50
2022-12-11T14:30:40.547Z,9.80
2022-12-11T14:33:17.832Z,8.90
2022-12-11T14:35:49.214Z,8.90
2022-12-11T14:38:50.317Z,10.90
2022-12-11T14:41:26.631Z,9.60
2022-12-11T14:44:11.763Z,9.20
2022-12-11T14:46:57.328Z,9.00
2022-12-11T14:49:35.993Z,9.70
2022-12-11T14:52:05.508Z,9.00
2022-12-11T14:54:40.643Z,9.80
2022-12-11T14:57:19.164Z,8.60
2022-12-11T14:59:53.212Z,8.90
2022-12-11T15:02:37.077Z,9.10
2022-12-11T15:05:21.789Z,8.60
2022-12-11T15:08:16.409Z,9.10
2022-12-11T15:12:08.304Z,8.20
2022-12-11T15:15:04.047Z,8.50
2022-12-11T15:17:40.360Z,8.70
2022-12-11T15:20:24.301Z,9.00
2022-12-11T15:22:55.896Z,8.40
2022-12-11T16:09:09.405Z,8.00
2022-12-11T16:42:14.244Z,9.50
2022-12-11T16:44:59.681Z,9.80
2022-12-11T16:47:36.628Z,9.70
2022-12-11T16:59:49.342Z,8.70
2022-12-11T17:06:16.370Z,9.90
2022-12-11T17:10:05.933Z,8.50
2022-12-11T17:13:57.508Z,10.00
2022-12-11T17:16:41.282Z,8.70
2022-12-11T17:19:15.382Z,8.30
2022-12-11T17:21:51.571Z,9.40
2022-12-11T17:24:23.507Z,10.40
2022-12-11T17:26:56.623Z,9.30
2022-12-11T17:29:27.553Z,10.60
2022-12-11T17:31:59.718Z,9.50
2022-12-11T17:34:36.152Z,9.10
2022-12-11T17:37:08.980Z,8.60
2022-12-11T17:42:12.706Z,9.40
2022-12-11T17:44:46.210Z,9.70
2022-12-11T17:47:24.773Z,10.10
2022-12-11T17:49:58.477Z,10.20
2022-12-11T17:52:34.079Z,9.70
2022-12-11T17:55:10.481Z,8.80
2022-12-11T17:57:42.655Z,10.50
2022-12-11T18:00:17.626Z,9.10
2022-12-11T18:02:52.285Z,9.30
2022-12-11T18:05:24.351Z,10.70
2022-12-11T18:07:57.891Z,10.00
2022-12-11T18:10:29.693Z,9.60
2022-12-11T18:19:27.880Z,12.20
2022-12-11T18:22:04.332Z,11.30
2022-12-11T18:28:15.026Z,12.60
2022-12-11T18:34:53.565Z,10.60
2022-12-11T18:38:36.434Z,13.00
2022-12-11T18:45:15.361Z,12.20
2022-12-11T18:47:57.533Z,11.80
2022-12-11T18:50:52.032Z,13.60
2022-12-11T18:56:50.224Z,14.70
2022-12-11T18:59:46.163Z,14.30
2022-12-11T19:02:16.647Z,12.80
2022-12-11T19:04:53.788Z,13.40
2022-12-11T19:07:38.474Z,13.80
2022-12-11T19:10:22.356Z,12.90
2022-12-11T19:12:52.341Z,13.80
2022-12-11T19:15:32.757Z,13.50
2022-12-11T19:18:26.889Z,11.90
2022-12-11T19:21:08.363Z,13.60
2022-12-11T19:23:49.429Z,12.70
2022-12-11T19:26:31.737Z,13.70
2022-12-11T19:29:03.540Z,13.60
2022-12-11T19:31:53.665Z,15.90
2022-12-11T19:34:36.499Z,12.80
2022-12-11T19:37:06.988Z,14.10
2022-12-11T19:39:40.946Z,13.90
2022-12-11T19:42:12.395Z,13.20
2022-12-11T19:44:45.063Z,12.60
2022-12-11T19:47:24.613Z,12.50
2022-12-11T19:50:01.597Z,12.80
2022-12-11T19:52:32.232Z,12.20
2022-12-11T19:55:20.433Z,13.60
2022-12-11T19:58:10.154Z,12.20
2022-12-11T20:00:49.590Z,12.40
2022-12-11T20:03:23.018Z,13.90
2022-12-11T20:06:02.620Z,12.70
2022-12-11T20:08:47.767Z,12.40
2022-12-11T20:11:29.752Z,11.60
2022-12-11T20:14:18.482Z,11.70
2022-12-11T20:19:42.860Z,12.50
2022-12-11T20:22:12.952Z,12.40
2022-12-11T20:24:55.821Z,12.70
2022-12-11T20:34:04.171Z,10.60
2022-12-11T20:37:03.394Z,9.70
2022-12-11T20:42:30.405Z,10.80
2022-12-11T20:44:59.959Z,10.00
2022-12-11T20:47:48.929Z,13.30
2022-12-11T20:50:22.846Z,12.80
2022-12-11T20:56:00.423Z,11.70
2022-12-11T20:58:30.689Z,10.50
2022-12-11T21:05:29.354Z,12.00
2022-12-11T21:08:14.197Z,10.90
2022-12-11T21:11:02.523Z,11.10
2022-12-11T21:13:43.624Z,12.40
2022-12-11T21:16:26.330Z,10.30
2022-12-11T21:19:16.837Z,10.60
2022-12-11T21:25:18.246Z,10.20
2022-12-11T21:28:00.548Z,9.50
2022-12-11T21:30:51.950Z,9.90
2022-12-11T21:33:27.693Z,10.10
2022-12-11T21:35:59.066Z,9.70
2022-12-11T21:38:33.515Z,10.40
2022-12-11T21:41:18.854Z,10.20
2022-12-11T21:45:03.395Z,10.10
2022-12-11T21:46:43.808Z,11.50
2022-12-11T21:52:09.720Z,11.20
2022-12-11T21:54:47.917Z,11.60
2022-12-11T21:57:25.849Z,11.60
2022-12-11T22:00:05.481Z,12.60
2022-12-11T22:02:40.995Z,13.00
2022-12-11T22:05:13.136Z,11.70
2022-12-11T22:07:49.108Z,11.20
2022-12-11T22:10:21.337Z,10.80
2022-12-11T22:12:51.724Z,12.70
2022-12-11T22:15:22.760Z,11.40
2022-12-11T22:17:53.186Z,11.50
2022-12-11T22:22:53.290Z,11.50
2022-12-11T22:25:36.248Z,12.50
2022-12-11T22:28:06.097Z,10.90
2022-12-11T22:30:41.961Z,10.20
2022-12-11T22:33:24.809Z,11.70
2022-12-11T22:38:43.319Z,12.00
2022-12-11T22:41:29.905Z,11.70
2022-12-11T22:44:05.706Z,10.40
2022-12-11T22:46:38.066Z,12.30
2022-12-11T22:49:08.552Z,10.80
2022-12-11T22:51:39.224Z,13.20
2022-12-11T22:54:08.425Z,10.90
2022-12-11T22:56:38.308Z,11.40
2022-12-11T22:59:10.098Z,11.30
2022-12-11T23:01:39.375Z,11.80
2022-12-11T23:04:08.528Z,9.80
2022-12-11T23:06:38.726Z,10.90
2022-12-11T23:11:48.300Z,10.90
2022-12-11T23:14:32.247Z,11.00
2022-12-11T23:17:04.585Z,10.30
2022-12-11T23:19:40.519Z,11.60
2022-12-11T23:26:57.830Z,10.90
2022-12-11T23:29:43.927Z,10.10
2022-12-11T23:32:30.792Z,10.20
2022-12-11T23:35:17.895Z,10.30
2022-12-11T23:37:52.803Z,11.00
2022-12-11T23:40:23.024Z,11.10
2022-12-11T23:42:54.267Z,10.40
2022-12-11T23:45:23.353Z,10.70
2022-12-11T23:47:52.474Z,10.60
2022-12-11T23:50:21.600Z,11.10
2022-12-11T23:52:50.478Z,11.40
2022-12-11T23:55:22.235Z,12.10
2022-12-11T23:57:53.856Z,13.10
